sensor_id;sensor_type;location;lat;lon;timestamp;pressure;altitude;pressure_sealevel;temperature;humidity
967;BME280;56108;48.730;9.304;2022-12-31T00:01:30;97399.63;;;11.54;100.00
967;BME280;56108;48.730;9.304;2022-12-31T00:03:38;97397.94;;;11.53;100.00
967;BME280;56108;48.730;9.304;2022-12-31T00:05:46;97388.28;;;11.63;100.00
967;BME280;56108;48.730;9.304;2022-12-31T00:07:54;97406.44;;;11.69;100.00
967;BME280;56108;48.730;9.304;2022-12-31T00:10:02;97408.28;;;11.68;100.00
967;BME280;56108;48.730;9.304;2022-12-31T00:12:13;97414.34;;;11.70;100.00
967;BME280;56108;48.730;9.304;2022-12-31T00:14:20;97419.81;;;11.80;100.00
967;BME280;56108;48.730;9.304;2022-12-31T00:16:31;97414.59;;;11.79;100.00
967;BME280;56108;48.730;9.304;2022-12-31T00:18:42;97430.03;;;11.86;100.00
967;BME280;56108;48.730;9.304;2022-12-31T00:20:51;97418.41;;;11.87;100.00
967;BME280;56108;48.730;9.304;2022-12-31T00:22:59;97429.78;;;11.89;100.00
967;BME280;56108;48.730;9.304;2022-12-31T00:25:08;97419.47;;;11.85;100.00
967;BME280;56108;48.730;9.304;2022-12-31T00:27:18;97430.03;;;11.86;100.00
967;BME280;56108;48.730;9.304;2022-12-31T00:29:26;97427.47;;;11.85;100.00
967;BME280;56108;48.730;9.304;2022-12-31T00:31:35;97429.53;;;11.81;100.00
967;BME280;56108;48.730;9.304;2022-12-31T00:33:44;97432.00;;;11.95;100.00
967;BME280;56108;48.730;9.304;2022-12-31T00:35:52;97438.41;;;12.04;100.00
967;BME280;56108;48.730;9.304;2022-12-31T00:37:59;97447.28;;;12.16;100.00
967;BME280;56108;48.730;9.304;2022-12-31T00:40:09;97453.72;;;12.02;100.00
967;BME280;56108;48.730;9.304;2022-12-31T00:42:20;97449.84;;;12.06;100.00
967;BME280;56108;48.730;9.304;2022-12-31T00:44:29;97454.91;;;12.09;100.00
967;BME280;56108;48.730;9.304;2022-12-31T00:46:37;97455.91;;;12.08;100.00
967;BME280;56108;48.730;9.304;2022-12-31T00:48:44;97450.91;;;12.04;100.00
967;BME280;56108;48.730;9.304;2022-12-31T00:50:53;97455.53;;;12.01;100.00
967;BME280;56108;48.730;9.304;2022-12-31T00:53:01;97458.22;;;12.13;100.00
967;BME280;56108;48.730;9.304;2022-12-31T00:55:09;97456.47;;;12.00;100.00
967;BME280;56108;48.730;9.304;2022-12-31T00:57:16;97465.59;;;12.20;100.00
967;BME280;56108;48.730;9.304;2022-12-31T00:59:27;97477.50;;;12.27;100.00
967;BME280;56108;48.730;9.304;2022-12-31T01:01:36;97477.88;;;12.23;100.00
967;BME280;56108;48.730;9.304;2022-12-31T01:03:46;97477.88;;;12.23;100.00
967;BME280;56108;48.730;9.304;2022-12-31T01:05:57;97480.63;;;12.21;100.00
967;BME280;56108;48.730;9.304;2022-12-31T01:08:05;97488.03;;;12.18;100.00
967;BME280;56108;48.730;9.304;2022-12-31T01:10:13;97491.31;;;12.21;100.00
967;BME280;56108;48.730;9.304;2022-12-31T01:12:41;97489.59;;;12.09;100.00
967;BME280;56108;48.730;9.304;2022-12-31T01:14:52;97487.91;;;12.19;100.00
967;BME280;56108;48.730;9.304;2022-12-31T01:16:59;97490.44;;;11.98;100.00
967;BME280;56108;48.730;9.304;2022-12-31T01:19:11;97493.81;;;12.00;100.00
967;BME280;56108;48.730;9.304;2022-12-31T01:21:20;97498.06;;;12.03;100.00
967;BME280;56108;48.730;9.304;2022-12-31T01:23:28;97495.38;;;11.92;100.00
967;BME280;56108;48.730;9.304;2022-12-31T01:25:37;97494.91;;;11.98;100.00
967;BME280;56108;48.730;9.304;2022-12-31T01:27:45;97504.81;;;11.85;100.00
967;BME280;56108;48.730;9.304;2022-12-31T01:29:55;97512.16;;;11.81;100.00
967;BME280;56108;48.730;9.304;2022-12-31T01:32:04;97517.00;;;11.76;100.00
967;BME280;56108;48.730;9.304;2022-12-31T01:34:12;97515.06;;;11.78;100.00
967;BME280;56108;48.730;9.304;2022-12-31T01:36:22;97513.50;;;11.75;100.00
967;BME280;56108;48.730;9.304;2022-12-31T01:38:30;97514.31;;;11.65;100.00
967;BME280;56108;48.730;9.304;2022-12-31T01:40:39;97515.25;;;11.64;100.00
967;BME280;56108;48.730;9.304;2022-12-31T01:42:53;97517.81;;;11.65;100.00
967;BME280;56108;48.730;9.304;2022-12-31T01:45:09;97513.38;;;11.53;100.00
967;BME280;56108;48.730;9.304;2022-12-31T01:47:22;97519.16;;;11.47;100.00
967;BME280;56108;48.730;9.304;2022-12-31T01:49:39;97515.91;;;11.43;100.00
967;BME280;56108;48.730;9.304;2022-12-31T01:51:50;97517.75;;;11.30;100.00
967;BME280;56108;48.730;9.304;2022-12-31T01:54:00;97517.94;;;11.40;100.00
967;BME280;56108;48.730;9.304;2022-12-31T01:56:10;97520.03;;;11.47;100.00
967;BME280;56108;48.730;9.304;2022-12-31T01:58:20;97526.09;;;11.49;100.00
967;BME280;56108;48.730;9.304;2022-12-31T02:00:32;97528.94;;;11.35;100.00
967;BME280;56108;48.730;9.304;2022-12-31T02:02:40;97524.16;;;11.52;100.00
967;BME280;56108;48.730;9.304;2022-12-31T02:04:49;97531.66;;;11.46;100.00
967;BME280;56108;48.730;9.304;2022-12-31T02:06:59;97538.91;;;11.44;100.00
967;BME280;56108;48.730;9.304;2022-12-31T02:09:07;97535.56;;;11.30;100.00
967;BME280;56108;48.730;9.304;2022-12-31T02:11:20;97525.34;;;11.23;100.00
967;BME280;56108;48.730;9.304;2022-12-31T02:13:28;97524.56;;;11.34;100.00
967;BME280;56108;48.730;9.304;2022-12-31T02:15:46;97527.22;;;11.34;100.00
967;BME280;56108;48.730;9.304;2022-12-31T02:18:01;97527.91;;;11.25;100.00
967;BME280;56108;48.730;9.304;2022-12-31T02:20:28;97536.22;;;11.20;100.00
967;BME280;56108;48.730;9.304;2022-12-31T02:22:55;97529.00;;;11.22;100.00
967;BME280;56108;48.730;9.304;2022-12-31T02:25:29;97540.50;;;11.23;100.00
967;BME280;56108;48.730;9.304;2022-12-31T02:27:51;97540.66;;;11.33;100.00
967;BME280;56108;48.730;9.304;2022-12-31T02:30:14;97552.91;;;11.35;100.00
967;BME280;56108;48.730;9.304;2022-12-31T02:32:29;97547.28;;;11.27;100.00
967;BME280;56108;48.730;9.304;2022-12-31T02:34:45;97555.19;;;11.29;100.00
967;BME280;56108;48.730;9.304;2022-12-31T02:36:55;97554.91;;;11.44;100.00
967;BME280;56108;48.730;9.304;2022-12-31T02:39:06;97563.41;;;11.49;100.00
967;BME280;56108;48.730;9.304;2022-12-31T02:41:17;97564.25;;;11.50;100.00
967;BME280;56108;48.730;9.304;2022-12-31T02:43:44;97560.41;;;11.54;100.00
967;BME280;56108;48.730;9.304;2022-12-31T02:46:01;97567.94;;;11.60;100.00
967;BME280;56108;48.730;9.304;2022-12-31T02:48:25;97558.41;;;11.69;100.00
967;BME280;56108;48.730;9.304;2022-12-31T02:50:41;97561.13;;;11.80;100.00
967;BME280;56108;48.730;9.304;2022-12-31T02:53:11;97564.94;;;11.89;100.00
967;BME280;56108;48.730;9.304;2022-12-31T02:55:28;97569.97;;;11.81;100.00
967;BME280;56108;48.730;9.304;2022-12-31T02:57:41;97568.88;;;11.96;100.00
967;BME280;56108;48.730;9.304;2022-12-31T02:59:57;97562.00;;;12.16;100.00
967;BME280;56108;48.730;9.304;2022-12-31T03:02:22;97563.41;;;11.97;100.00
967;BME280;56108;48.730;9.304;2022-12-31T03:04:29;97559.66;;;12.00;100.00
967;BME280;56108;48.730;9.304;2022-12-31T03:06:41;97560.28;;;12.15;100.00
967;BME280;56108;48.730;9.304;2022-12-31T03:08:51;97563.44;;;12.09;100.00
967;BME280;56108;48.730;9.304;2022-12-31T03:11:11;97564.16;;;12.11;100.00
967;BME280;56108;48.730;9.304;2022-12-31T03:13:39;97552.91;;;12.18;100.00
967;BME280;56108;48.730;9.304;2022-12-31T03:15:44;97558.41;;;12.39;100.00
967;BME280;56108;48.730;9.304;2022-12-31T03:18:00;97560.44;;;12.24;100.00
967;BME280;56108;48.730;9.304;2022-12-31T03:20:08;97563.94;;;12.14;100.00
967;BME280;56108;48.730;9.304;2022-12-31T03:22:29;97560.56;;;12.12;100.00
967;BME280;56108;48.730;9.304;2022-12-31T03:24:34;97553.72;;;11.96;100.00
967;BME280;56108;48.730;9.304;2022-12-31T03:26:54;97547.13;;;11.89;100.00
967;BME280;56108;48.730;9.304;2022-12-31T03:29:02;97559.78;;;11.98;100.00
967;BME280;56108;48.730;9.304;2022-12-31T03:31:10;97554.78;;;11.94;100.00
967;BME280;56108;48.730;9.304;2022-12-31T03:33:21;97566.03;;;11.86;100.00
967;BME280;56108;48.730;9.304;2022-12-31T03:35:31;97572.63;;;12.05;100.00
967;BME280;56108;48.730;9.304;2022-12-31T03:37:39;97575.06;;;11.96;100.00
967;BME280;56108;48.730;9.304;2022-12-31T03:39:47;97587.13;;;11.89;100.00
967;BME280;56108;48.730;9.304;2022-12-31T03:41:55;97580.59;;;11.93;100.00
967;BME280;56108;48.730;9.304;2022-12-31T03:44:03;97589.91;;;12.12;100.00
967;BME280;56108;48.730;9.304;2022-12-31T03:46:11;97586.88;;;12.16;100.00
967;BME280;56108;48.730;9.304;2022-12-31T03:48:22;97590.44;;;12.28;100.00
967;BME280;56108;48.730;9.304;2022-12-31T03:50:30;97593.59;;;12.33;100.00
967;BME280;56108;48.730;9.304;2022-12-31T03:52:38;97595.50;;;12.31;100.00
967;BME280;56108;48.730;9.304;2022-12-31T03:54:46;97587.28;;;12.34;100.00
967;BME280;56108;48.730;9.304;2022-12-31T03:56:54;97597.16;;;12.56;100.00
967;BME280;56108;48.730;9.304;2022-12-31T03:59:04;97603.97;;;12.60;100.00
967;BME280;56108;48.730;9.304;2022-12-31T04:01:11;97602.34;;;12.58;100.00
967;BME280;56108;48.730;9.304;2022-12-31T04:03:22;97604.56;;;12.64;100.00
967;BME280;56108;48.730;9.304;2022-12-31T04:05:30;97608.09;;;12.64;100.00
967;BME280;56108;48.730;9.304;2022-12-31T04:07:38;97609.78;;;12.65;100.00
967;BME280;56108;48.730;9.304;2022-12-31T04:09:46;97611.47;;;12.55;100.00
967;BME280;56108;48.730;9.304;2022-12-31T04:11:54;97619.59;;;12.53;100.00
967;BME280;56108;48.730;9.304;2022-12-31T04:14:02;97619.34;;;12.57;100.00
967;BME280;56108;48.730;9.304;2022-12-31T04:16:09;97618.00;;;12.51;100.00
967;BME280;56108;48.730;9.304;2022-12-31T04:18:17;97618.25;;;12.48;100.00
967;BME280;56108;48.730;9.304;2022-12-31T04:20:28;97610.84;;;12.51;100.00
967;BME280;56108;48.730;9.304;2022-12-31T04:22:36;97613.78;;;12.60;100.00
967;BME280;56108;48.730;9.304;2022-12-31T04:24:44;97609.03;;;12.63;100.00
967;BME280;56108;48.730;9.304;2022-12-31T04:26:51;97604.69;;;12.73;100.00
967;BME280;56108;48.730;9.304;2022-12-31T04:28:59;97618.66;;;12.77;100.00
967;BME280;56108;48.730;9.304;2022-12-31T04:31:07;97631.03;;;12.89;100.00
967;BME280;56108;48.730;9.304;2022-12-31T04:33:15;97626.19;;;12.83;100.00
967;BME280;56108;48.730;9.304;2022-12-31T04:35:23;97618.44;;;12.80;100.00
967;BME280;56108;48.730;9.304;2022-12-31T04:37:33;97607.84;;;12.78;100.00
967;BME280;56108;48.730;9.304;2022-12-31T04:39:41;97608.47;;;12.82;100.00
967;BME280;56108;48.730;9.304;2022-12-31T04:41:49;97616.00;;;12.77;100.00
967;BME280;56108;48.730;9.304;2022-12-31T04:43:57;97621.09;;;12.80;100.00
967;BME280;56108;48.730;9.304;2022-12-31T04:46:06;97631.88;;;12.67;100.00
967;BME280;56108;48.730;9.304;2022-12-31T04:48:13;97633.34;;;12.83;100.00
967;BME280;56108;48.730;9.304;2022-12-31T04:50:21;97639.66;;;12.82;100.00
967;BME280;56108;48.730;9.304;2022-12-31T04:52:29;97638.69;;;12.71;100.00
967;BME280;56108;48.730;9.304;2022-12-31T04:54:48;97642.97;;;12.96;100.00
967;BME280;56108;48.730;9.304;2022-12-31T04:56:56;97638.34;;;13.10;100.00
967;BME280;56108;48.730;9.304;2022-12-31T04:59:04;97644.78;;;12.96;100.00
967;BME280;56108;48.730;9.304;2022-12-31T05:01:13;97642.47;;;13.02;100.00
967;BME280;56108;48.730;9.304;2022-12-31T05:03:24;97642.13;;;12.96;100.00
967;BME280;56108;48.730;9.304;2022-12-31T05:05:32;97643.69;;;12.98;100.00
967;BME280;56108;48.730;9.304;2022-12-31T05:07:46;97639.81;;;12.91;100.00
967;BME280;56108;48.730;9.304;2022-12-31T05:09:56;97650.28;;;13.05;100.00
967;BME280;56108;48.730;9.304;2022-12-31T05:12:05;97654.00;;;12.92;100.00
967;BME280;56108;48.730;9.304;2022-12-31T05:14:12;97656.81;;;13.01;100.00
967;BME280;56108;48.730;9.304;2022-12-31T05:16:21;97653.03;;;12.93;100.00
967;BME280;56108;48.730;9.304;2022-12-31T05:18:29;97650.50;;;13.14;100.00
967;BME280;56108;48.730;9.304;2022-12-31T05:20:37;97649.06;;;13.21;100.00
967;BME280;56108;48.730;9.304;2022-12-31T05:22:45;97646.75;;;13.16;100.00
967;BME280;56108;48.730;9.304;2022-12-31T05:24:53;97641.16;;;13.08;100.00
967;BME280;56108;48.730;9.304;2022-12-31T05:27:03;97645.41;;;13.11;100.00
967;BME280;56108;48.730;9.304;2022-12-31T05:29:11;97643.44;;;12.90;100.00
967;BME280;56108;48.730;9.304;2022-12-31T05:31:19;97646.84;;;12.92;100.00
967;BME280;56108;48.730;9.304;2022-12-31T05:33:26;97641.72;;;12.78;100.00
967;BME280;56108;48.730;9.304;2022-12-31T05:35:34;97641.47;;;12.70;100.00
967;BME280;56108;48.730;9.304;2022-12-31T05:37:42;97635.66;;;12.76;100.00
967;BME280;56108;48.730;9.304;2022-12-31T05:39:50;97640.28;;;12.74;100.00
967;BME280;56108;48.730;9.304;2022-12-31T05:41:58;97643.78;;;12.74;100.00
967;BME280;56108;48.730;9.304;2022-12-31T05:44:09;97636.78;;;12.85;100.00
967;BME280;56108;48.730;9.304;2022-12-31T05:46:17;97635.78;;;12.86;100.00
967;BME280;56108;48.730;9.304;2022-12-31T05:48:24;97629.47;;;12.75;100.00
967;BME280;56108;48.730;9.304;2022-12-31T05:50:32;97620.47;;;12.76;100.00
967;BME280;56108;48.730;9.304;2022-12-31T05:52:41;97623.03;;;12.78;100.00
967;BME280;56108;48.730;9.304;2022-12-31T05:54:51;97620.13;;;12.70;100.00
967;BME280;56108;48.730;9.304;2022-12-31T05:56:59;97623.63;;;12.70;100.00
967;BME280;56108;48.730;9.304;2022-12-31T05:59:10;97640.72;;;12.68;100.00
967;BME280;56108;48.730;9.304;2022-12-31T06:01:17;97640.50;;;12.60;100.00
967;BME280;56108;48.730;9.304;2022-12-31T06:03:25;97637.31;;;12.54;100.00
967;BME280;56108;48.730;9.304;2022-12-31T06:05:33;97637.69;;;12.61;100.00
967;BME280;56108;48.730;9.304;2022-12-31T06:07:41;97638.94;;;12.79;100.00
967;BME280;56108;48.730;9.304;2022-12-31T06:09:49;97642.44;;;12.69;100.00
967;BME280;56108;48.730;9.304;2022-12-31T06:11:56;97642.81;;;12.64;100.00
967;BME280;56108;48.730;9.304;2022-12-31T06:14:04;97647.66;;;12.59;100.00
967;BME280;56108;48.730;9.304;2022-12-31T06:16:15;97657.97;;;12.64;100.00
967;BME280;56108;48.730;9.304;2022-12-31T06:18:22;97659.41;;;12.57;100.00
967;BME280;56108;48.730;9.304;2022-12-31T06:20:30;97665.00;;;12.53;100.00
967;BME280;56108;48.730;9.304;2022-12-31T06:22:38;97677.59;;;12.51;100.00
967;BME280;56108;48.730;9.304;2022-12-31T06:24:46;97674.38;;;12.70;100.00
967;BME280;56108;48.730;9.304;2022-12-31T06:26:54;97671.19;;;12.54;100.00
967;BME280;56108;48.730;9.304;2022-12-31T06:29:01;97670.44;;;12.63;100.00
967;BME280;56108;48.730;9.304;2022-12-31T06:31:11;97671.91;;;12.67;100.00
967;BME280;56108;48.730;9.304;2022-12-31T06:33:22;97677.19;;;12.80;100.00
967;BME280;56108;48.730;9.304;2022-12-31T06:35:30;97671.91;;;12.67;100.00
967;BME280;56108;48.730;9.304;2022-12-31T06:37:37;97674.72;;;12.66;100.00
967;BME280;56108;48.730;9.304;2022-12-31T06:39:45;97681.91;;;12.76;100.00
967;BME280;56108;48.730;9.304;2022-12-31T06:41:53;97676.28;;;12.68;100.00
967;BME280;56108;48.730;9.304;2022-12-31T06:44:01;97676.16;;;12.59;100.00
967;BME280;56108;48.730;9.304;2022-12-31T06:46:11;97687.84;;;12.69;100.00
967;BME280;56108;48.730;9.304;2022-12-31T06:48:22;97703.38;;;12.75;100.00
967;BME280;56108;48.730;9.304;2022-12-31T06:50:30;97718.09;;;12.80;100.00
967;BME280;56108;48.730;9.304;2022-12-31T06:52:38;97707.75;;;12.76;100.00
967;BME280;56108;48.730;9.304;2022-12-31T06:54:47;97690.28;;;12.83;100.00
967;BME280;56108;48.730;9.304;2022-12-31T06:56:55;97699.66;;;12.89;100.00
967;BME280;56108;48.730;9.304;2022-12-31T06:59:04;97694.44;;;12.87;100.00
967;BME280;56108;48.730;9.304;2022-12-31T07:01:28;97703.56;;;12.96;100.00
967;BME280;56108;48.730;9.304;2022-12-31T07:03:43;97694.44;;;13.10;100.00
967;BME280;56108;48.730;9.304;2022-12-31T07:06:01;97691.53;;;12.90;100.00
967;BME280;56108;48.730;9.304;2022-12-31T07:08:23;97690.28;;;12.83;100.00
967;BME280;56108;48.730;9.304;2022-12-31T07:10:44;97695.41;;;12.97;100.00
967;BME280;56108;48.730;9.304;2022-12-31T07:13:06;97704.66;;;13.04;100.00
967;BME280;56108;48.730;9.304;2022-12-31T07:15:24;97695.91;;;13.14;100.00
967;BME280;56108;48.730;9.304;2022-12-31T07:17:47;97707.94;;;12.97;100.00
967;BME280;56108;48.730;9.304;2022-12-31T07:20:05;97721.25;;;12.86;100.00
967;BME280;56108;48.730;9.304;2022-12-31T07:22:15;97711.91;;;12.80;100.00
967;BME280;56108;48.730;9.304;2022-12-31T07:24:25;97715.91;;;12.74;100.00
967;BME280;56108;48.730;9.304;2022-12-31T07:26:55;97704.97;;;12.77;100.00
967;BME280;56108;48.730;9.304;2022-12-31T07:29:11;97704.88;;;12.90;100.00
967;BME280;56108;48.730;9.304;2022-12-31T07:31:30;97715.06;;;12.85;100.00
967;BME280;56108;48.730;9.304;2022-12-31T07:33:48;97716.41;;;12.91;100.00
967;BME280;56108;48.730;9.304;2022-12-31T07:36:12;97722.91;;;13.11;100.00
967;BME280;56108;48.730;9.304;2022-12-31T07:38:30;97720.94;;;13.01;100.00
967;BME280;56108;48.730;9.304;2022-12-31T07:40:52;97726.91;;;13.05;100.00
967;BME280;56108;48.730;9.304;2022-12-31T07:43:07;97724.81;;;12.97;100.00
967;BME280;56108;48.730;9.304;2022-12-31T07:45:20;97733.59;;;13.11;100.00
967;BME280;56108;48.730;9.304;2022-12-31T07:47:31;97726.56;;;13.21;100.00
967;BME280;56108;48.730;9.304;2022-12-31T07:49:40;97734.81;;;13.18;100.00
967;BME280;56108;48.730;9.304;2022-12-31T07:51:53;97740.53;;;13.24;100.00
967;BME280;56108;48.730;9.304;2022-12-31T07:54:01;97735.97;;;13.38;100.00
967;BME280;56108;48.730;9.304;2022-12-31T07:56:17;97748.47;;;13.37;100.00
967;BME280;56108;48.730;9.304;2022-12-31T07:58:31;97748.47;;;13.48;100.00
967;BME280;56108;48.730;9.304;2022-12-31T08:00:47;97747.97;;;13.43;100.00
967;BME280;56108;48.730;9.304;2022-12-31T08:03:12;97755.75;;;13.35;100.00
967;BME280;56108;48.730;9.304;2022-12-31T08:05:27;97753.31;;;13.32;100.00
967;BME280;56108;48.730;9.304;2022-12-31T08:07:46;97754.31;;;13.53;100.00
967;BME280;56108;48.730;9.304;2022-12-31T08:10:01;97758.19;;;13.49;100.00
967;BME280;56108;48.730;9.304;2022-12-31T08:12:20;97768.53;;;13.54;100.00
967;BME280;56108;48.730;9.304;2022-12-31T08:14:29;97764.28;;;13.63;100.00
967;BME280;56108;48.730;9.304;2022-12-31T08:16:37;97765.72;;;13.67;100.00
967;BME280;56108;48.730;9.304;2022-12-31T08:18:46;97761.00;;;13.59;100.00
967;BME280;56108;48.730;9.304;2022-12-31T08:21:02;97761.59;;;13.74;100.00
967;BME280;56108;48.730;9.304;2022-12-31T08:23:23;97768.38;;;13.78;100.00
967;BME280;56108;48.730;9.304;2022-12-31T08:25:39;97768.75;;;14.07;100.00
967;BME280;56108;48.730;9.304;2022-12-31T08:28:01;97771.19;;;14.10;100.00
967;BME280;56108;48.730;9.304;2022-12-31T08:30:14;97767.41;;;14.01;100.00
967;BME280;56108;48.730;9.304;2022-12-31T08:32:25;97763.03;;;14.00;100.00
967;BME280;56108;48.730;9.304;2022-12-31T08:34:43;97766.19;;;14.05;100.00
967;BME280;56108;48.730;9.304;2022-12-31T08:37:00;97761.81;;;14.16;99.86
967;BME280;56108;48.730;9.304;2022-12-31T08:39:21;97764.09;;;14.09;100.00
967;BME280;56108;48.730;9.304;2022-12-31T08:41:37;97763.72;;;14.25;99.13
967;BME280;56108;48.730;9.304;2022-12-31T08:44:01;97775.50;;;14.33;98.70
967;BME280;56108;48.730;9.304;2022-12-31T08:46:20;97772.44;;;14.38;97.05
967;BME280;56108;48.730;9.304;2022-12-31T08:48:32;97769.53;;;14.52;96.01
967;BME280;56108;48.730;9.304;2022-12-31T08:50:44;97768.06;;;14.48;95.99
967;BME280;56108;48.730;9.304;2022-12-31T08:52:53;97785.97;;;14.48;96.56
967;BME280;56108;48.730;9.304;2022-12-31T08:55:05;97788.00;;;14.55;95.33
967;BME280;56108;48.730;9.304;2022-12-31T08:57:19;97794.84;;;14.48;96.05
967;BME280;56108;48.730;9.304;2022-12-31T08:59:38;97801.41;;;14.44;96.41
967;BME280;56108;48.730;9.304;2022-12-31T09:04:45;97798.09;;;14.41;96.56
967;BME280;56108;48.730;9.304;2022-12-31T09:07:01;97813.31;;;14.63;95.62
967;BME280;56108;48.730;9.304;2022-12-31T09:09:15;97812.47;;;14.51;95.56
967;BME280;56108;48.730;9.304;2022-12-31T09:11:33;97813.78;;;14.45;97.12
967;BME280;56108;48.730;9.304;2022-12-31T09:14:07;97804.34;;;14.41;97.91
967;BME280;56108;48.730;9.304;2022-12-31T09:16:25;97807.00;;;14.52;96.75
967;BME280;56108;48.730;9.304;2022-12-31T09:18:40;97808.53;;;14.66;96.01
967;BME280;56108;48.730;9.304;2022-12-31T09:20:48;97808.63;;;14.76;94.57
967;BME280;56108;48.730;9.304;2022-12-31T09:22:57;97805.56;;;14.80;94.68
967;BME280;56108;48.730;9.304;2022-12-31T09:25:12;97811.19;;;15.09;93.66
967;BME280;56108;48.730;9.304;2022-12-31T09:27:27;97817.34;;;15.42;91.60
967;BME280;56108;48.730;9.304;2022-12-31T09:29:43;97818.28;;;16.13;86.42
967;BME280;56108;48.730;9.304;2022-12-31T09:32:03;97819.50;;;16.40;82.62
967;BME280;56108;48.730;9.304;2022-12-31T09:34:20;97821.19;;;16.81;81.20
967;BME280;56108;48.730;9.304;2022-12-31T09:36:33;97824.44;;;17.04;78.79
967;BME280;56108;48.730;9.304;2022-12-31T09:38:47;97829.09;;;17.31;75.39
967;BME280;56108;48.730;9.304;2022-12-31T09:41:11;97829.59;;;17.73;73.86
967;BME280;56108;48.730;9.304;2022-12-31T09:51:27;97847.41;;;19.04;65.27
967;BME280;56108;48.730;9.304;2022-12-31T09:53:58;97850.50;;;19.45;62.47
967;BME280;56108;48.730;9.304;2022-12-31T09:56:16;97859.00;;;19.32;61.98
967;BME280;56108;48.730;9.304;2022-12-31T09:58:40;97857.59;;;19.28;63.03
967;BME280;56108;48.730;9.304;2022-12-31T10:00:52;97865.47;;;19.83;61.24
967;BME280;56108;48.730;9.304;2022-12-31T10:03:24;97857.44;;;19.91;60.08
967;BME280;56108;48.730;9.304;2022-12-31T10:05:49;97845.34;;;19.34;62.05
967;BME280;56108;48.730;9.304;2022-12-31T10:08:09;97839.66;;;18.73;63.77
967;BME280;56108;48.730;9.304;2022-12-31T10:10:23;97828.91;;;18.18;66.91
967;BME280;56108;48.730;9.304;2022-12-31T10:13:00;97825.28;;;17.34;70.30
967;BME280;56108;48.730;9.304;2022-12-31T10:18:04;97821.16;;;16.91;74.28
967;BME280;56108;48.730;9.304;2022-12-31T10:20:29;97814.22;;;16.88;74.30
967;BME280;56108;48.730;9.304;2022-12-31T10:23:18;97814.38;;;16.77;74.53
967;BME280;56108;48.730;9.304;2022-12-31T10:25:39;97813.31;;;16.68;75.00
967;BME280;56108;48.730;9.304;2022-12-31T10:27:54;97813.22;;;16.80;74.22
967;BME280;56108;48.730;9.304;2022-12-31T10:30:12;97803.63;;;16.77;73.99
967;BME280;56108;48.730;9.304;2022-12-31T10:32:33;97798.25;;;16.77;74.43
967;BME280;56108;48.730;9.304;2022-12-31T10:34:53;97809.41;;;16.73;74.99
967;BME280;56108;48.730;9.304;2022-12-31T10:37:05;97806.53;;;16.64;75.18
967;BME280;56108;48.730;9.304;2022-12-31T10:39:26;97809.41;;;16.73;73.54
967;BME280;56108;48.730;9.304;2022-12-31T10:41:52;97804.69;;;16.65;74.35
967;BME280;56108;48.730;9.304;2022-12-31T10:44:27;97800.16;;;16.56;75.77
967;BME280;56108;48.730;9.304;2022-12-31T10:47:03;97811.47;;;16.50;74.84
967;BME280;56108;48.730;9.304;2022-12-31T10:54:49;97784.72;;;16.48;74.42
967;BME280;56108;48.730;9.304;2022-12-31T10:57:33;97785.56;;;16.49;74.33
967;BME280;56108;48.730;9.304;2022-12-31T11:00:11;97781.34;;;16.46;73.59
967;BME280;56108;48.730;9.304;2022-12-31T11:05:10;97773.69;;;16.32;74.60
967;BME280;56108;48.730;9.304;2022-12-31T11:07:58;97774.38;;;16.24;75.18
967;BME280;56108;48.730;9.304;2022-12-31T11:13:00;97776.50;;;16.30;75.18
967;BME280;56108;48.730;9.304;2022-12-31T11:15:25;97772.28;;;16.47;71.92
967;BME280;56108;48.730;9.304;2022-12-31T11:17:45;97778.94;;;16.53;71.94
967;BME280;56108;48.730;9.304;2022-12-31T11:20:05;97767.50;;;16.51;72.68
967;BME280;56108;48.730;9.304;2022-12-31T11:22:31;97771.56;;;16.55;72.81
967;BME280;56108;48.730;9.304;2022-12-31T11:27:29;97762.69;;;16.64;71.79
967;BME280;56108;48.730;9.304;2022-12-31T11:29:48;97763.72;;;16.73;72.85
967;BME280;56108;48.730;9.304;2022-12-31T11:32:05;97760.47;;;16.79;71.50
967;BME280;56108;48.730;9.304;2022-12-31T11:34:48;97766.00;;;16.77;71.98
967;BME280;56108;48.730;9.304;2022-12-31T11:37:15;97759.78;;;16.86;72.65
967;BME280;56108;48.730;9.304;2022-12-31T11:39:46;97750.13;;;16.84;73.23
967;BME280;56108;48.730;9.304;2022-12-31T11:42:02;97755.09;;;16.88;72.22
967;BME280;56108;48.730;9.304;2022-12-31T11:44:29;97742.66;;;16.87;72.35
967;BME280;56108;48.730;9.304;2022-12-31T11:46:50;97750.97;;;16.94;72.26
967;BME280;56108;48.730;9.304;2022-12-31T11:49:15;97738.38;;;16.94;72.75
967;BME280;56108;48.730;9.304;2022-12-31T11:51:45;97745.88;;;17.01;72.47
967;BME280;56108;48.730;9.304;2022-12-31T11:54:28;97738.97;;;16.98;73.33
967;BME280;56108;48.730;9.304;2022-12-31T11:56:45;97737.81;;;17.10;70.83
967;BME280;56108;48.730;9.304;2022-12-31T11:58:56;97737.22;;;17.07;71.68
967;BME280;56108;48.730;9.304;2022-12-31T12:01:17;97735.13;;;16.91;72.94
967;BME280;56108;48.730;9.304;2022-12-31T12:03:30;97733.28;;;17.01;72.69
967;BME280;56108;48.730;9.304;2022-12-31T12:05:42;97734.13;;;17.02;72.54
967;BME280;56108;48.730;9.304;2022-12-31T12:07:51;97734.00;;;17.03;72.77
967;BME280;56108;48.730;9.304;2022-12-31T12:10:02;97731.00;;;17.06;72.54
967;BME280;56108;48.730;9.304;2022-12-31T12:12:11;97729.22;;;16.97;72.69
967;BME280;56108;48.730;9.304;2022-12-31T12:14:30;97727.91;;;17.01;72.25
967;BME280;56108;48.730;9.304;2022-12-31T12:16:44;97731.84;;;17.07;72.40
967;BME280;56108;48.730;9.304;2022-12-31T12:19:02;97735.25;;;17.18;71.03
967;BME280;56108;48.730;9.304;2022-12-31T12:21:13;97729.63;;;17.02;71.83
967;BME280;56108;48.730;9.304;2022-12-31T12:23:24;97725.09;;;17.12;71.69
967;BME280;56108;48.730;9.304;2022-12-31T12:25:37;97729.16;;;17.16;70.08
967;BME280;56108;48.730;9.304;2022-12-31T12:27:45;97736.78;;;17.21;70.01
967;BME280;56108;48.730;9.304;2022-12-31T12:29:56;97731.44;;;17.11;70.76